createdAt,value
2019-04-05T00:00:51.525Z,13.60
2019-04-05T00:03:18.086Z,13.70
2019-04-05T00:05:44.637Z,13.80
2019-04-05T00:08:11.117Z,13.80
2019-04-05T00:10:37.681Z,13.90
2019-04-05T00:13:04.551Z,14.00
2019-04-05T00:15:31.006Z,14.00
2019-04-05T00:17:57.487Z,14.10
2019-04-05T00:20:23.932Z,14.10
2019-04-05T00:22:50.370Z,14.10
2019-04-05T00:25:16.833Z,14.20
2019-04-05T00:27:45.181Z,14.20
2019-04-05T00:30:12.190Z,14.20
2019-04-05T00:32:38.657Z,14.30
2019-04-05T00:35:06.433Z,14.30
2019-04-05T00:37:32.857Z,14.30
2019-04-05T00:39:59.324Z,14.30
2019-04-05T00:42:25.775Z,14.30
2019-04-05T00:44:52.427Z,14.30
2019-04-05T00:47:18.888Z,14.30
2019-04-05T00:49:46.335Z,14.20
2019-04-05T00:52:12.768Z,14.20
2019-04-05T00:54:39.327Z,14.30
2019-04-05T00:57:05.859Z,14.30
2019-04-05T00:59:32.428Z,14.30
2019-04-05T01:01:58.992Z,14.30
2019-04-05T01:04:25.464Z,14.10
2019-04-05T01:06:52.108Z,14.20
2019-04-05T01:09:19.750Z,14.20
2019-04-05T01:11:46.714Z,14.20
2019-04-05T01:14:13.437Z,14.20
2019-04-05T01:16:40.987Z,14.20
2019-04-05T01:19:07.624Z,14.20
2019-04-05T01:21:38.677Z,14.10
2019-04-05T01:24:06.118Z,14.10
2019-04-05T01:26:34.899Z,14.00
2019-04-05T01:29:01.424Z,14.00
2019-04-05T01:31:28.015Z,13.90
2019-04-05T01:33:54.546Z,13.90
2019-04-05T01:36:21.188Z,13.80
2019-04-05T01:38:47.742Z,13.80
2019-04-05T01:41:14.485Z,13.70
2019-04-05T01:43:40.912Z,13.70
2019-04-05T01:46:07.773Z,13.60
2019-04-05T01:48:34.446Z,13.60
2019-04-05T01:51:00.992Z,13.50
2019-04-05T01:53:27.980Z,13.60
2019-04-05T01:55:54.436Z,13.60
2019-04-05T01:58:20.867Z,13.70
2019-04-05T02:00:47.416Z,13.70
2019-04-05T02:03:13.961Z,13.60
2019-04-05T02:05:42.606Z,13.60
2019-04-05T02:08:09.143Z,13.60
2019-04-05T02:10:35.998Z,13.50
2019-04-05T02:13:02.660Z,13.50
2019-04-05T02:15:32.308Z,13.50
2019-04-05T02:17:58.863Z,13.50
2019-04-05T02:20:26.836Z,13.40
2019-04-05T02:22:53.476Z,13.30
2019-04-05T02:25:20.130Z,13.40
2019-04-05T02:27:46.541Z,13.40
2019-04-05T02:30:13.606Z,13.40
2019-04-05T02:32:40.149Z,13.30
2019-04-05T02:35:07.100Z,13.30
2019-04-05T02:37:33.984Z,13.40
2019-04-05T02:40:00.535Z,13.30
2019-04-05T02:42:27.482Z,13.30
2019-04-05T02:44:54.175Z,13.20
2019-04-05T02:47:21.302Z,13.20
2019-04-05T02:49:50.155Z,13.20
2019-04-05T02:52:18.484Z,13.00
2019-04-05T02:54:45.757Z,13.00
2019-04-05T02:57:13.384Z,13.00
2019-04-05T02:59:40.445Z,13.00
2019-04-05T03:02:07.444Z,12.90
2019-04-05T03:04:34.212Z,13.10
2019-04-05T03:07:00.940Z,13.10
2019-04-05T03:09:29.008Z,13.10
2019-04-05T03:11:57.035Z,13.10
2019-04-05T03:14:23.771Z,13.10
2019-04-05T03:16:53.535Z,13.00
2019-04-05T03:19:23.777Z,12.90
2019-04-05T03:21:53.833Z,12.80
2019-04-05T03:24:24.079Z,12.90
2019-04-05T03:26:54.361Z,12.90
2019-04-05T03:29:21.238Z,12.90
2019-04-05T03:31:49.199Z,12.90
2019-04-05T03:34:16.320Z,12.90
2019-04-05T03:36:43.063Z,12.90
2019-04-05T03:39:09.681Z,12.90
2019-04-05T03:41:36.567Z,12.80
2019-04-05T03:44:03.473Z,12.90
2019-04-05T03:46:31.154Z,12.80
2019-04-05T03:48:57.782Z,12.80
2019-04-05T03:51:24.422Z,12.80
2019-04-05T03:53:50.974Z,12.80
2019-04-05T03:56:18.136Z,12.60
2019-04-05T03:58:45.100Z,12.70
2019-04-05T04:01:12.367Z,12.70
2019-04-05T04:03:38.927Z,12.70
2019-04-05T04:06:05.572Z,12.70
2019-04-05T04:08:32.042Z,12.60
2019-04-05T04:10:58.573Z,12.70
2019-04-05T04:13:25.295Z,12.70
2019-04-05T04:15:52.054Z,12.70
2019-04-05T04:18:19.706Z,12.70
2019-04-05T04:20:50.003Z,12.70
2019-04-05T04:23:17.486Z,12.70
2019-04-05T04:25:44.201Z,12.60
2019-04-05T04:28:10.754Z,12.60
2019-04-05T04:30:37.312Z,12.50
2019-04-05T04:33:05.392Z,12.40
2019-04-05T04:35:32.654Z,12.50
2019-04-05T04:37:59.627Z,12.50
2019-04-05T04:40:26.160Z,12.50
2019-04-05T04:42:53.399Z,12.40
2019-04-05T04:45:20.270Z,12.30
2019-04-05T04:47:47.495Z,12.40
2019-04-05T04:50:15.020Z,12.40
2019-04-05T04:52:42.071Z,12.50
2019-04-05T04:55:08.725Z,12.50
2019-04-05T04:57:35.345Z,12.50
2019-04-05T05:00:02.807Z,12.40
2019-04-05T05:02:30.343Z,12.40
2019-04-05T05:04:57.294Z,12.50
2019-04-05T05:07:24.156Z,12.40
2019-04-05T05:09:51.174Z,12.50
2019-04-05T05:12:18.258Z,12.60
2019-04-05T05:14:45.008Z,12.60
2019-04-05T05:17:11.801Z,12.60
2019-04-05T05:19:38.468Z,12.70
2019-04-05T05:22:05.236Z,12.60
2019-04-05T05:24:32.477Z,12.60
2019-04-05T05:26:59.114Z,12.60
2019-04-05T05:29:25.964Z,12.70
2019-04-05T05:31:53.021Z,12.70
2019-04-05T05:34:20.800Z,12.80
2019-04-05T05:36:48.403Z,12.80
2019-04-05T05:39:15.633Z,12.70
2019-04-05T05:41:42.497Z,12.70
2019-04-05T05:44:09.154Z,12.70
2019-04-05T05:46:45.539Z,12.70
2019-04-05T05:49:23.749Z,12.60
2019-04-05T05:52:05.071Z,12.50
2019-04-05T05:54:42.926Z,12.50
2019-04-05T05:57:21.000Z,12.40
2019-04-05T06:00:00.457Z,12.40
2019-04-05T06:02:49.936Z,12.20
2019-04-05T06:05:30.846Z,12.20
2019-04-05T06:08:00.965Z,12.30
2019-04-05T06:10:38.747Z,12.20
2019-04-05T06:13:07.804Z,12.00
2019-04-05T06:15:44.728Z,11.90
2019-04-05T06:18:27.075Z,11.90
2019-04-05T06:21:06.736Z,11.90
2019-04-05T06:23:52.342Z,11.80
2019-04-05T06:26:20.861Z,11.80
2019-04-05T06:28:47.377Z,11.80
2019-04-05T06:31:14.698Z,11.90
2019-04-05T06:33:41.804Z,11.70
2019-04-05T06:36:08.244Z,11.50
2019-04-05T06:38:34.796Z,11.60
2019-04-05T06:41:01.267Z,11.50
2019-04-05T06:43:27.887Z,11.40
2019-04-05T06:45:54.441Z,11.40
2019-04-05T06:48:20.992Z,11.50
2019-04-05T06:50:47.863Z,11.40
2019-04-05T06:53:14.629Z,11.50
2019-04-05T06:58:46.415Z,11.60
2019-04-05T07:01:16.958Z,11.60
2019-04-05T07:03:48.633Z,11.70
2019-04-05T07:06:21.081Z,11.60
2019-04-05T07:08:53.666Z,11.50
2019-04-05T07:11:15.854Z,11.60
2019-04-05T07:13:42.477Z,11.60
2019-04-05T07:16:11.119Z,11.60
2019-04-05T07:18:37.550Z,11.50
2019-04-05T07:21:04.018Z,11.50
2019-04-05T07:23:30.747Z,11.50
2019-04-05T07:25:57.201Z,11.60
2019-04-05T07:28:25.087Z,11.60
2019-04-05T07:30:52.055Z,11.70
2019-04-05T07:33:18.526Z,11.60
2019-04-05T07:35:44.966Z,11.50
2019-04-05T07:38:11.531Z,11.50
2019-04-05T07:40:38.128Z,11.60
2019-04-05T07:43:04.559Z,11.70
2019-04-05T07:45:31.229Z,11.80
2019-04-05T07:47:57.809Z,11.70
2019-04-05T07:50:24.262Z,11.80
2019-04-05T07:52:50.694Z,11.70
2019-04-05T07:55:18.194Z,11.80
2019-04-05T07:57:44.761Z,11.90
2019-04-05T08:00:40.988Z,12.00
2019-04-05T08:03:07.459Z,11.90
2019-04-05T08:05:34.096Z,12.00
2019-04-05T08:08:03.836Z,11.90
2019-04-05T08:10:31.588Z,12.00
2019-04-05T08:12:59.556Z,12.10
2019-04-05T08:15:26.217Z,12.10
2019-04-05T08:17:52.683Z,11.90
2019-04-05T08:20:19.105Z,11.90
2019-04-05T08:22:56.162Z,12.00
2019-04-05T08:25:27.704Z,12.10
2019-04-05T08:27:54.398Z,11.90
2019-04-05T08:30:24.752Z,12.00
2019-04-05T08:32:51.352Z,12.10
2019-04-05T08:35:18.036Z,12.10
2019-04-05T08:37:44.618Z,12.10
2019-04-05T08:40:11.662Z,12.00
2019-04-05T08:42:38.259Z,12.00
2019-04-05T08:45:05.751Z,12.10
2019-04-05T08:47:32.279Z,12.10
2019-04-05T08:49:58.783Z,12.00
2019-04-05T08:52:27.016Z,12.10
2019-04-05T08:55:01.810Z,12.00
2019-04-05T08:57:30.102Z,11.90
2019-04-05T08:59:59.487Z,11.70
2019-04-05T09:02:26.833Z,11.80
2019-04-05T09:05:06.794Z,11.80
2019-04-05T09:07:37.947Z,11.90
2019-04-05T09:13:03.174Z,11.90
2019-04-05T09:15:35.577Z,11.90
2019-04-05T09:18:05.216Z,11.90
2019-04-05T09:20:35.374Z,11.70
2019-04-05T09:23:04.298Z,11.70
2019-04-05T09:25:33.727Z,11.80
2019-04-05T09:28:33.023Z,11.70
2019-04-05T09:33:50.359Z,11.60
2019-04-05T09:36:23.491Z,11.50
2019-04-05T09:38:55.064Z,11.60
2019-04-05T09:41:24.529Z,11.50
2019-04-05T09:43:54.372Z,11.60
2019-04-05T09:46:21.147Z,11.60
2019-04-05T09:48:49.964Z,11.60
2019-04-05T09:51:16.472Z,11.60
2019-04-05T09:53:43.116Z,11.70
2019-04-05T09:56:09.930Z,11.80
2019-04-05T09:58:36.462Z,11.70
2019-04-05T10:01:03.218Z,11.60
2019-04-05T10:03:29.830Z,11.70
2019-04-05T10:05:56.260Z,11.60
2019-04-05T10:08:23.228Z,11.60
2019-04-05T10:11:07.367Z,11.50
2019-04-05T10:13:42.532Z,11.40
2019-04-05T10:19:03.767Z,11.50
2019-04-05T10:21:31.028Z,11.60
2019-04-05T10:23:57.922Z,11.40
2019-04-05T10:26:24.472Z,11.40
2019-04-05T10:28:53.982Z,11.50
2019-04-05T10:31:24.645Z,11.50
2019-04-05T10:33:58.571Z,11.60
2019-04-05T10:39:34.411Z,11.70
2019-04-05T10:42:03.855Z,11.90
2019-04-05T10:44:30.698Z,11.90
2019-04-05T10:46:57.152Z,11.80
2019-04-05T10:49:23.718Z,11.90
2019-04-05T10:51:51.604Z,12.00
2019-04-05T10:54:18.030Z,11.90
2019-04-05T10:56:44.483Z,11.70
2019-04-05T10:59:11.208Z,11.80
2019-04-05T11:01:37.715Z,11.90
2019-04-05T11:04:05.577Z,12.10
2019-04-05T11:06:32.251Z,12.30
2019-04-05T11:08:58.742Z,12.40
2019-04-05T11:11:25.428Z,12.50
2019-04-05T11:13:53.550Z,12.70
2019-04-05T11:16:20.385Z,12.70
2019-04-05T11:18:47.977Z,12.90
2019-04-05T11:21:16.229Z,12.80
2019-04-05T11:23:42.698Z,12.80
2019-04-05T11:26:09.256Z,12.90
2019-04-05T11:28:35.711Z,12.90
2019-04-05T11:31:02.515Z,13.00
2019-04-05T11:33:29.274Z,12.90
2019-04-05T11:35:57.913Z,12.90
2019-04-05T11:38:24.603Z,12.90
2019-04-05T11:40:51.470Z,12.90
2019-04-05T11:43:18.148Z,13.20
2019-04-05T11:45:44.823Z,13.30
2019-04-05T11:48:11.514Z,13.30
2019-04-05T11:50:38.024Z,13.20
2019-04-05T11:53:04.597Z,13.30
2019-04-05T11:55:31.972Z,13.30
2019-04-05T11:57:59.858Z,13.50
2019-04-05T12:00:43.148Z,13.50
2019-04-05T12:03:17.275Z,13.60
2019-04-05T12:05:43.973Z,13.60
2019-04-05T12:08:10.447Z,13.50
2019-04-05T12:10:37.123Z,13.70
2019-04-05T12:13:03.715Z,13.70
2019-04-05T12:15:30.296Z,13.90
2019-04-05T12:17:56.804Z,14.40
2019-04-05T12:20:23.382Z,14.80
2019-04-05T12:22:52.364Z,15.00
2019-04-05T12:25:18.261Z,15.10
2019-04-05T12:27:44.743Z,15.40
2019-04-05T12:30:13.501Z,14.90
2019-04-05T12:32:41.610Z,14.80
2019-04-05T12:35:08.675Z,14.60
2019-04-05T12:37:49.189Z,14.50
2019-04-05T12:40:09.617Z,14.20
2019-04-05T12:42:34.575Z,14.00
2019-04-05T12:45:01.124Z,14.20
2019-04-05T12:47:28.770Z,14.40
2019-04-05T12:49:55.248Z,14.30
2019-04-05T12:52:23.260Z,14.40
2019-04-05T12:54:54.028Z,14.40
2019-04-05T12:57:18.359Z,14.40
2019-04-05T12:59:44.869Z,14.40
2019-04-05T13:02:11.297Z,14.40
2019-04-05T13:04:37.741Z,14.20
2019-04-05T13:07:04.431Z,13.90
2019-04-05T13:09:30.914Z,13.70
2019-04-05T13:11:57.563Z,12.60
2019-04-05T13:14:26.162Z,11.90
2019-04-05T13:16:52.405Z,11.60
2019-04-05T13:19:18.990Z,11.60
2019-04-05T13:21:45.507Z,11.30
2019-04-05T13:24:12.018Z,11.30
2019-04-05T13:26:41.817Z,11.20
2019-04-05T13:29:06.944Z,11.20
2019-04-05T13:31:33.393Z,10.90
2019-04-05T13:33:59.968Z,10.90
2019-04-05T13:36:26.544Z,10.80
2019-04-05T13:38:55.079Z,10.60
2019-04-05T13:41:22.478Z,10.50
2019-04-05T13:43:49.075Z,10.60
2019-04-05T13:46:21.991Z,10.50
2019-04-05T13:48:43.835Z,10.70
2019-04-05T13:51:12.895Z,10.70
2019-04-05T13:53:41.139Z,10.80
2019-04-05T13:56:08.668Z,10.80
2019-04-05T13:58:36.803Z,10.50
2019-04-05T14:01:03.713Z,9.90
2019-04-05T14:03:30.606Z,9.70
2019-04-05T14:05:57.299Z,9.40
2019-04-05T14:08:24.872Z,9.20
2019-04-05T14:10:51.509Z,9.30
2019-04-05T14:13:17.992Z,9.30
2019-04-05T14:15:44.594Z,9.40
2019-04-05T14:18:14.505Z,9.40
2019-04-05T14:20:39.695Z,9.50
2019-04-05T14:23:06.363Z,9.70
2019-04-05T14:25:33.034Z,9.80
2019-04-05T14:27:59.711Z,9.90
2019-04-05T14:30:27.222Z,9.90
2019-04-05T14:32:55.733Z,10.00
2019-04-05T14:35:24.510Z,10.00
2019-04-05T14:37:52.272Z,10.00
2019-04-05T14:40:19.270Z,10.00
2019-04-05T14:42:45.902Z,10.00
2019-04-05T14:45:12.745Z,10.10
2019-04-05T14:47:41.460Z,10.10
2019-04-05T14:50:08.600Z,10.20
2019-04-05T14:52:35.189Z,10.30
2019-04-05T14:55:01.752Z,10.20
2019-04-05T14:57:30.592Z,10.30
2019-04-05T14:59:57.073Z,10.20
2019-04-05T15:02:23.712Z,10.30
2019-04-05T15:04:50.311Z,10.30
2019-04-05T15:07:20.489Z,10.40
2019-04-05T15:09:45.162Z,10.40
2019-04-05T15:12:12.214Z,10.40
2019-04-05T15:14:40.405Z,10.40
2019-04-05T15:17:07.125Z,10.30
2019-04-05T15:19:33.591Z,10.20
2019-04-05T15:22:05.707Z,10.30
2019-04-05T15:24:28.484Z,10.40
2019-04-05T15:26:54.993Z,10.50
2019-04-05T15:29:23.674Z,10.50
2019-04-05T15:31:50.467Z,10.40
2019-04-05T15:34:17.358Z,10.20
2019-04-05T15:36:44.278Z,10.30
2019-04-05T15:39:20.857Z,10.20
2019-04-05T15:41:47.653Z,10.20
2019-04-05T15:44:14.222Z,10.20
2019-04-05T15:46:40.967Z,10.20
2019-04-05T15:49:07.519Z,10.40
2019-04-05T15:51:34.114Z,10.50
2019-04-05T15:54:01.508Z,10.50
2019-04-05T15:56:28.821Z,10.50
2019-04-05T15:58:55.276Z,10.30
2019-04-05T16:01:21.988Z,10.20
2019-04-05T16:03:48.546Z,10.30
2019-04-05T16:06:15.164Z,10.40
2019-04-05T16:08:42.018Z,10.60
2019-04-05T16:11:08.735Z,10.80
2019-04-05T16:13:35.390Z,10.80
2019-04-05T16:16:03.255Z,10.60
2019-04-05T16:18:29.957Z,10.70
2019-04-05T16:20:56.824Z,10.50
2019-04-05T16:23:24.538Z,10.50
2019-04-05T16:25:51.801Z,10.50
2019-04-05T16:28:21.111Z,10.20
2019-04-05T16:30:49.091Z,10.10
2019-04-05T16:33:20.961Z,10.20
2019-04-05T16:35:47.710Z,10.40
2019-04-05T16:38:14.288Z,10.40
2019-04-05T16:40:40.994Z,10.30
2019-04-05T16:43:07.621Z,10.50
2019-04-05T16:45:34.463Z,10.20
2019-04-05T16:48:01.133Z,10.20
2019-04-05T16:50:28.865Z,10.10
2019-04-05T16:52:55.432Z,10.20
2019-04-05T16:55:22.125Z,10.20
2019-04-05T16:57:48.741Z,10.20
2019-04-05T17:00:16.163Z,10.20
2019-04-05T17:02:43.057Z,10.30
2019-04-05T17:05:09.968Z,10.20
2019-04-05T17:07:36.634Z,10.20
2019-04-05T17:10:04.057Z,10.20
2019-04-05T17:12:30.982Z,10.20
2019-04-05T17:14:57.949Z,10.20
2019-04-05T17:17:24.766Z,10.10
2019-04-05T17:19:52.805Z,10.00
2019-04-05T17:22:19.449Z,10.00
2019-04-05T17:24:46.149Z,10.00
2019-04-05T17:27:12.699Z,10.00
2019-04-05T17:29:39.419Z,10.00
2019-04-05T17:32:05.988Z,9.90
2019-04-05T17:34:33.546Z,9.90
2019-04-05T17:37:00.329Z,9.90
2019-04-05T17:39:26.784Z,9.90
2019-04-05T17:41:53.329Z,9.80
2019-04-05T17:44:19.801Z,9.90
2019-04-05T17:46:46.268Z,10.00
2019-04-05T17:49:12.947Z,9.90
2019-04-05T17:51:39.526Z,9.80
2019-04-05T17:54:06.422Z,9.70
2019-04-05T17:56:34.091Z,9.70
2019-04-05T17:59:01.895Z,9.80
2019-04-05T18:01:29.029Z,9.70
2019-04-05T18:03:55.746Z,9.70
2019-04-05T18:06:22.549Z,9.60
2019-04-05T18:08:50.090Z,9.70
2019-04-05T18:11:35.303Z,9.70
2019-04-05T18:14:03.407Z,9.70
2019-04-05T18:16:30.061Z,9.60
2019-04-05T18:18:56.638Z,9.50
2019-04-05T18:21:23.287Z,9.50
2019-04-05T18:23:49.859Z,9.50
2019-04-05T18:26:16.827Z,9.50
2019-04-05T18:28:43.745Z,9.60
2019-04-05T18:31:10.404Z,9.60
2019-04-05T18:33:37.228Z,9.60
2019-04-05T18:36:03.906Z,9.40
2019-04-05T18:38:30.498Z,9.40
2019-04-05T18:40:56.984Z,9.50
2019-04-05T18:43:23.490Z,9.50
2019-04-05T18:45:51.013Z,9.40
2019-04-05T18:48:18.715Z,9.40
2019-04-05T18:50:48.232Z,9.50
2019-04-05T18:53:13.684Z,9.50
2019-04-05T18:55:40.274Z,9.50
2019-04-05T18:58:06.911Z,9.60
2019-04-05T19:00:33.596Z,9.50
2019-04-05T19:03:00.072Z,9.40
2019-04-05T19:05:26.634Z,9.50
2019-04-05T19:07:53.338Z,9.50
2019-04-05T19:10:19.971Z,9.50
2019-04-05T19:12:46.647Z,9.50
2019-04-05T19:15:13.329Z,9.50
2019-04-05T19:17:39.813Z,9.40
2019-04-05T19:20:06.590Z,9.50
2019-04-05T19:22:33.212Z,9.40
2019-04-05T19:24:59.715Z,9.30
2019-04-05T19:27:26.399Z,9.30
2019-04-05T19:29:52.989Z,9.30
2019-04-05T19:49:38.329Z,9.10
2019-04-05T19:52:05.123Z,9.20
2019-04-05T19:54:31.771Z,9.20
2019-04-05T19:56:59.567Z,9.20
2019-04-05T19:59:26.163Z,9.10
2019-04-05T20:01:52.950Z,9.10
2019-04-05T20:04:20.872Z,9.10
2019-04-05T20:06:47.460Z,9.10
2019-04-05T20:09:14.605Z,9.10
2019-04-05T20:11:41.394Z,9.10
2019-04-05T20:14:08.045Z,9.10
2019-04-05T20:16:34.769Z,9.10
2019-04-05T20:19:01.244Z,9.10
2019-04-05T20:21:27.994Z,9.00
2019-04-05T20:23:54.802Z,9.10
2019-04-05T20:26:21.478Z,9.10
2019-04-05T20:28:47.954Z,8.90
2019-04-05T20:31:14.618Z,9.00
2019-04-05T20:33:41.147Z,9.10
2019-04-05T20:36:07.815Z,9.10
2019-04-05T20:38:36.263Z,9.10
2019-04-05T20:41:03.025Z,9.00
2019-04-05T20:43:29.639Z,9.00
2019-04-05T20:45:56.100Z,8.90
2019-04-05T20:48:22.566Z,8.80
2019-04-05T20:50:49.029Z,8.80
2019-04-05T20:53:15.547Z,8.80
2019-04-05T20:55:42.074Z,8.90
2019-04-05T20:58:08.656Z,9.00
2019-04-05T21:00:35.114Z,8.80
2019-04-05T21:03:01.783Z,8.80
2019-04-05T21:05:28.299Z,9.00
2019-04-05T21:07:54.964Z,8.90
2019-04-05T21:10:21.451Z,9.00
2019-04-05T21:12:49.151Z,8.90
2019-04-05T21:15:15.640Z,8.90
2019-04-05T21:17:42.244Z,8.90
2019-04-05T21:20:09.035Z,8.90
2019-04-05T21:22:35.524Z,8.90
2019-04-05T21:25:03.842Z,8.90
2019-04-05T21:27:30.373Z,8.90
2019-04-05T21:29:56.910Z,9.00
2019-04-05T21:32:23.407Z,9.00
2019-04-05T21:34:49.894Z,9.00
2019-04-05T21:37:16.410Z,8.90
2019-04-05T21:39:42.983Z,9.00
2019-04-05T21:42:09.471Z,9.10
2019-04-05T21:44:35.968Z,9.10
2019-04-05T21:47:02.670Z,9.00
2019-04-05T21:49:29.238Z,8.90
2019-04-05T21:51:55.844Z,8.80
2019-04-05T21:54:22.515Z,8.80
2019-04-05T21:56:49.119Z,8.90
2019-04-05T21:59:15.715Z,8.90
2019-04-05T22:01:43.013Z,9.00
2019-04-05T22:04:09.674Z,9.00
2019-04-05T22:06:36.576Z,8.90
2019-04-05T22:09:07.113Z,8.90
2019-04-05T22:11:33.699Z,8.80
2019-04-05T22:14:00.191Z,8.70
2019-04-05T22:16:26.660Z,8.80
2019-04-05T22:18:53.155Z,8.80
2019-04-05T22:21:19.745Z,8.90
2019-04-05T22:23:46.208Z,8.90
2019-04-05T22:26:12.947Z,8.90
2019-04-05T22:28:39.447Z,8.80
2019-04-05T22:31:05.952Z,8.90
2019-04-05T22:33:32.440Z,8.90
2019-04-05T22:35:58.900Z,8.90
2019-04-05T22:38:25.358Z,8.90
2019-04-05T22:40:51.939Z,8.80
2019-04-05T22:43:18.394Z,8.80
2019-04-05T22:45:44.984Z,8.90
2019-04-05T22:48:11.412Z,8.90
2019-04-05T22:50:38.099Z,8.90
2019-04-05T22:53:04.828Z,8.90
2019-04-05T22:55:31.595Z,8.90
2019-04-05T23:01:01.431Z,9.00
2019-04-05T23:03:28.230Z,8.90
2019-04-05T23:05:54.832Z,9.00
2019-04-05T23:08:21.445Z,8.90
2019-04-05T23:10:47.998Z,9.00
2019-04-05T23:13:14.497Z,8.90
2019-04-05T23:15:41.117Z,8.90
2019-04-05T23:18:07.588Z,8.80
2019-04-05T23:20:34.073Z,8.90
2019-04-05T23:23:00.559Z,8.80
2019-04-05T23:25:27.130Z,8.70
2019-04-05T23:27:54.639Z,8.80
2019-04-05T23:30:22.887Z,8.90
2019-04-05T23:32:49.445Z,8.80
2019-04-05T23:35:16.025Z,8.80
2019-04-05T23:37:42.748Z,8.80
2019-04-05T23:40:09.701Z,8.70
2019-04-05T23:42:36.165Z,8.80
2019-04-05T23:45:04.861Z,8.80
2019-04-05T23:47:31.408Z,8.80
2019-04-05T23:49:57.844Z,8.80
2019-04-05T23:52:24.340Z,8.80
2019-04-05T23:54:50.799Z,8.70
2019-04-05T23:57:17.273Z,8.80
2019-04-05T23:59:43.752Z,8.80
